Time,TemperatureF,DewpointF,PressureIn,WindDirection,WindDirectionDegrees,WindSpeedMPH,WindSpeedGustMPH,Humidity,HourlyPrecipIn,Conditions,Clouds,dailyrainin,SoftwareType,DateUTC
2013-05-11 00:01:00,67.0,46.0,30.14,NW,307,17.0,29.0,46,0.00,,,0.00,,2013-05-11 07:01:00,
2013-05-11 00:11:00,67.0,46.0,30.14,NW,307,17.0,29.0,46,0.00,,,0.00,,2013-05-11 07:11:00,
2013-05-11 00:21:00,68.0,44.0,30.14,NW,314,15.0,26.0,42,0.00,,,0.00,,2013-05-11 07:21:00,
2013-05-11 00:31:00,68.0,45.0,30.14,NW,309,14.0,26.0,43,0.00,,,0.00,,2013-05-11 07:31:00,
2013-05-11 00:41:00,68.0,45.0,30.14,NW,309,14.0,26.0,43,0.00,,,0.00,,2013-05-11 07:41:00,
2013-05-11 00:52:00,68.0,46.0,30.15,NW,312,15.0,24.0,46,0.00,,,0.00,,2013-05-11 07:52:00,
2013-05-11 01:01:00,67.0,48.0,30.14,NW,314,19.0,34.0,50,0.00,,,0.00,,2013-05-11 08:01:00,
2013-05-11 01:11:00,67.0,48.0,30.14,NW,314,19.0,34.0,50,0.00,,,0.00,,2013-05-11 08:11:00,
2013-05-11 01:21:00,67.0,47.0,30.14,NW,312,22.0,32.0,49,0.00,,,0.00,,2013-05-11 08:21:00,
2013-05-11 01:31:00,67.0,46.0,30.14,NW,316,15.0,33.0,47,0.00,,,0.00,,2013-05-11 08:31:00,
2013-05-11 01:42:00,68.0,46.0,30.14,NW,321,13.0,21.0,45,0.00,,,0.00,,2013-05-11 08:42:00,
2013-05-11 01:52:00,68.0,46.0,30.14,NW,321,13.0,21.0,45,0.00,,,0.00,,2013-05-11 08:52:00,
2013-05-11 02:01:00,69.0,42.0,30.14,SE,136,3.0,16.0,38,0.00,,,0.00,,2013-05-11 09:01:00,
2013-05-11 02:11:00,69.0,42.0,30.14,SE,136,3.0,16.0,38,0.00,,,0.00,,2013-05-11 09:11:00,
2013-05-11 02:21:00,66.0,47.0,30.14,SW,223,21.0,30.0,51,0.00,,,0.00,,2013-05-11 09:21:00,
2013-05-11 02:32:00,65.0,47.0,30.14,SW,231,21.0,28.0,53,0.00,,,0.00,,2013-05-11 09:32:00,
2013-05-11 02:42:00,65.0,48.0,30.15,WSW,240,21.0,32.0,54,0.00,,,0.00,,2013-05-11 09:42:00,
2013-05-11 02:52:00,65.0,48.0,30.15,WSW,240,21.0,32.0,54,0.00,,,0.00,,2013-05-11 09:52:00,
2013-05-11 03:02:00,65.0,48.0,30.14,WSW,252,17.0,30.0,54,0.00,,,0.00,,2013-05-11 10:02:00,
2013-05-11 03:12:00,65.0,48.0,30.14,WSW,252,17.0,30.0,54,0.00,,,0.00,,2013-05-11 10:12:00,
2013-05-11 03:22:00,65.0,48.0,30.14,WSW,243,17.0,29.0,54,0.00,,,0.00,,2013-05-11 10:22:00,
2013-05-11 03:32:00,64.0,47.0,30.14,WSW,240,15.0,24.0,54,0.00,,,0.00,,2013-05-11 10:32:00,
2013-05-11 03:42:00,62.0,48.0,30.14,WSW,238,17.0,28.0,60,0.00,,,0.00,,2013-05-11 10:42:00,
2013-05-11 03:52:00,62.0,48.0,30.14,WSW,238,17.0,28.0,60,0.00,,,0.00,,2013-05-11 10:52:00,
2013-05-11 04:02:00,61.0,47.0,30.14,WSW,245,15.0,24.0,61,0.00,,,0.00,,2013-05-11 11:02:00,
2013-05-11 04:11:00,61.0,47.0,30.14,WSW,245,15.0,24.0,61,0.00,,,0.00,,2013-05-11 11:11:00,
2013-05-11 04:21:00,61.0,47.0,30.14,SW,234,17.0,21.0,61,0.00,,,0.00,,2013-05-11 11:21:00,
2013-05-11 04:31:00,61.0,47.0,30.14,SW,225,12.0,20.0,61,0.00,,,0.00,,2013-05-11 11:31:00,
2013-05-11 04:42:00,61.0,47.0,30.14,SW,236,20.0,27.0,60,0.00,,,0.00,,2013-05-11 11:42:00,
2013-05-11 04:51:00,61.0,47.0,30.14,SW,236,20.0,27.0,60,0.00,,,0.00,,2013-05-11 11:51:00,
2013-05-11 05:01:00,61.0,47.0,30.14,WSW,241,18.0,27.0,59,0.00,,,0.00,,2013-05-11 12:01:00,
2013-05-11 05:11:00,61.0,47.0,30.14,WSW,241,18.0,27.0,59,0.00,,,0.00,,2013-05-11 12:11:00,
2013-05-11 05:21:00,61.0,47.0,30.15,WSW,238,18.0,25.0,61,0.00,,,0.00,,2013-05-11 12:21:00,
2013-05-11 05:31:00,60.0,47.0,30.15,WSW,240,20.0,26.0,62,0.00,,,0.00,,2013-05-11 12:31:00,
2013-05-11 05:41:00,60.0,47.0,30.15,SW,233,18.0,25.0,63,0.00,,,0.00,,2013-05-11 12:41:00,
2013-05-11 05:51:00,60.0,47.0,30.15,SW,233,18.0,25.0,63,0.00,,,0.00,,2013-05-11 12:51:00,
2013-05-11 06:01:00,60.0,47.0,30.14,SW,231,19.0,22.0,63,0.00,,,0.00,,2013-05-11 13:01:00,
2013-05-11 06:11:00,60.0,47.0,30.14,SW,231,19.0,22.0,63,0.00,,,0.00,,2013-05-11 13:11:00,
2013-05-11 06:21:00,61.0,47.0,30.15,SW,235,15.0,22.0,61,0.00,,,0.00,,2013-05-11 13:21:00,
2013-05-11 06:31:00,61.0,47.0,30.15,SW,235,18.0,24.0,61,0.00,,,0.00,,2013-05-11 13:31:00,
2013-05-11 06:41:00,61.0,47.0,30.16,SW,233,15.0,21.0,60,0.00,,,0.00,,2013-05-11 13:41:00,
2013-05-11 06:52:00,61.0,47.0,30.16,SW,233,15.0,21.0,60,0.00,,,0.00,,2013-05-11 13:52:00,
2013-05-11 07:01:00,61.0,47.0,30.16,SW,222,15.0,22.0,60,0.00,,,0.00,,2013-05-11 14:01:00,
2013-05-11 07:11:00,61.0,47.0,30.16,SW,222,15.0,22.0,60,0.00,,,0.00,,2013-05-11 14:11:00,
2013-05-11 07:21:00,61.0,47.0,30.16,SW,217,15.0,21.0,60,0.00,,,0.00,,2013-05-11 14:21:00,
2013-05-11 07:32:00,63.0,48.0,30.16,SW,220,14.0,19.0,57,0.00,,,0.00,,2013-05-11 14:32:00,
2013-05-11 07:41:00,64.0,47.0,30.16,SW,224,12.0,19.0,54,0.00,,,0.00,,2013-05-11 14:41:00,
2013-05-11 07:52:00,64.0,47.0,30.16,SW,224,12.0,19.0,54,0.00,,,0.00,,2013-05-11 14:52:00,
2013-05-11 08:01:00,66.0,48.0,30.16,SW,225,11.0,16.0,52,0.00,,,0.00,,2013-05-11 15:01:00,
2013-05-11 08:11:00,68.0,47.0,30.16,SW,235,12.0,16.0,47,0.00,,,0.00,,2013-05-11 15:11:00,
2013-05-11 08:21:00,68.0,47.0,30.16,SW,235,12.0,16.0,47,0.00,,,0.00,,2013-05-11 15:21:00,
2013-05-11 08:32:00,70.0,47.0,30.17,WSW,240,9.0,12.0,44,0.00,,,0.00,,2013-05-11 15:32:00,
2013-05-11 08:42:00,72.0,47.0,30.17,WSW,244,7.0,12.0,41,0.00,,,0.00,,2013-05-11 15:42:00,
2013-05-11 09:02:00,73.0,46.0,30.17,WSW,245,9.0,13.0,38,0.00,,,0.00,,2013-05-11 16:02:00,
2013-05-11 09:22:00,74.0,45.0,30.20,WSW,247,5.0,11.0,36,0.00,,,0.00,,2013-05-11 16:22:00,
2013-05-11 09:32:00,75.0,45.0,30.20,SW,221,6.0,9.0,34,0.00,,,0.00,,2013-05-11 16:32:00,
2013-05-11 09:42:00,77.0,40.0,30.20,South,174,4.0,10.0,27,0.00,,,0.00,,2013-05-11 16:42:00,
2013-05-11 09:52:00,77.0,40.0,30.20,South,174,4.0,10.0,27,0.00,,,0.00,,2013-05-11 16:52:00,
2013-05-11 10:02:00,79.0,39.0,30.20,East,98,5.0,10.0,24,0.00,,,0.00,,2013-05-11 17:02:00,
2013-05-11 10:22:00,79.0,39.0,30.20,ENE,77,8.0,12.0,24,0.00,,,0.00,,2013-05-11 17:22:00,
2013-05-11 10:31:00,79.0,38.0,30.20,East,93,6.0,14.0,23,0.00,,,0.00,,2013-05-11 17:31:00,
2013-05-11 10:41:00,80.0,35.0,30.20,East,96,10.0,14.0,20,0.00,,,0.00,,2013-05-11 17:41:00,
2013-05-11 10:52:00,80.0,35.0,30.20,East,96,10.0,14.0,20,0.00,,,0.00,,2013-05-11 17:52:00,
2013-05-11 11:01:00,81.0,33.0,30.20,East,90,8.0,15.0,18,0.00,,,0.00,,2013-05-11 18:01:00,
2013-05-11 11:11:00,81.0,33.0,30.20,East,90,8.0,15.0,18,0.00,,,0.00,,2013-05-11 18:11:00,
2013-05-11 11:21:00,81.0,33.0,30.21,ESE,109,9.0,16.0,18,0.00,,,0.00,,2013-05-11 18:21:00,
2013-05-11 11:32:00,82.0,34.0,30.21,ENE,63,10.0,15.0,18,0.00,,,0.00,,2013-05-11 18:32:00,
2013-05-11 11:41:00,81.0,33.0,30.21,East,93,12.0,17.0,18,0.00,,,0.00,,2013-05-11 18:41:00,
2013-05-11 11:52:00,81.0,33.0,30.21,East,93,12.0,17.0,18,0.00,,,0.00,,2013-05-11 18:52:00,
2013-05-11 12:01:00,81.0,33.0,30.20,East,94,10.0,18.0,18,0.00,,,0.00,,2013-05-11 19:01:00,
2013-05-11 12:11:00,81.0,33.0,30.20,East,94,10.0,18.0,18,0.00,,,0.00,,2013-05-11 19:11:00,
2013-05-11 12:21:00,82.0,34.0,30.20,ENE,65,2.0,13.0,18,0.00,,,0.00,,2013-05-11 19:21:00,
2013-05-11 12:31:00,82.0,33.0,30.20,SE,128,6.0,13.0,17,0.00,,,0.00,,2013-05-11 19:31:00,
2013-05-11 12:41:00,82.0,33.0,30.20,East,81,7.0,18.0,17,0.00,,,0.00,,2013-05-11 19:41:00,
2013-05-11 12:52:00,82.0,33.0,30.20,East,81,7.0,18.0,17,0.00,,,0.00,,2013-05-11 19:52:00,
2013-05-11 13:01:00,83.0,34.0,30.19,ENE,78,7.0,15.0,17,0.00,,,0.00,,2013-05-11 20:01:00,
2013-05-11 13:11:00,83.0,34.0,30.19,ENE,78,7.0,15.0,17,0.00,,,0.00,,2013-05-11 20:11:00,
2013-05-11 13:22:00,83.0,34.0,30.19,SSE,157,6.0,19.0,17,0.00,,,0.00,,2013-05-11 20:22:00,
2013-05-11 13:32:00,83.0,32.0,30.19,SE,127,9.0,17.0,16,0.00,,,0.00,,2013-05-11 20:32:00,
2013-05-11 13:42:00,84.0,33.0,30.18,ESE,120,4.0,17.0,16,0.00,,,0.00,,2013-05-11 20:42:00,
2013-05-11 13:52:00,84.0,33.0,30.18,ESE,120,4.0,17.0,16,0.00,,,0.00,,2013-05-11 20:52:00,
2013-05-11 14:01:00,84.0,31.0,30.18,East,80,8.0,18.0,15,0.00,,,0.00,,2013-05-11 21:01:00,
2013-05-11 14:11:00,84.0,31.0,30.18,East,80,8.0,18.0,15,0.00,,,0.00,,2013-05-11 21:11:00,
2013-05-11 14:21:00,84.0,31.0,30.17,SSE,157,6.0,15.0,15,0.00,,,0.00,,2013-05-11 21:21:00,
2013-05-11 14:33:00,84.0,30.0,30.16,East,100,13.0,21.0,14,0.00,,,0.00,,2013-05-11 21:33:00,
2013-05-11 14:43:00,84.0,30.0,30.16,East,100,13.0,21.0,14,0.00,,,0.00,,2013-05-11 21:43:00,
2013-05-11 14:52:00,85.0,30.0,30.16,ENE,77,12.0,21.0,14,0.00,,,0.00,,2013-05-11 21:52:00,
2013-05-11 15:02:00,85.0,30.0,30.15,East,101,10.0,17.0,14,0.00,,,0.00,,2013-05-11 22:02:00,
2013-05-11 15:12:00,85.0,30.0,30.15,East,101,10.0,17.0,14,0.00,,,0.00,,2013-05-11 22:12:00,
2013-05-11 15:22:00,85.0,30.0,30.14,East,83,11.0,29.0,14,0.00,,,0.00,,2013-05-11 22:22:00,
2013-05-11 15:33:00,86.0,29.0,30.14,East,80,10.0,18.0,13,0.00,,,0.00,,2013-05-11 22:33:00,
2013-05-11 15:42:00,86.0,29.0,30.14,East,80,10.0,18.0,13,0.00,,,0.00,,2013-05-11 22:42:00,
2013-05-11 15:52:00,85.0,29.0,30.14,ESE,111,6.0,19.0,13,0.00,,,0.00,,2013-05-11 22:52:00,
2013-05-11 16:02:00,86.0,29.0,30.13,ENE,74,8.0,17.0,13,0.00,,,0.00,,2013-05-11 23:02:00,
2013-05-11 16:11:00,86.0,29.0,30.13,ENE,74,8.0,17.0,13,0.00,,,0.00,,2013-05-11 23:11:00,
2013-05-11 16:21:00,86.0,29.0,30.13,East,86,4.0,18.0,13,0.00,,,0.00,,2013-05-11 23:21:00,
2013-05-11 16:31:00,86.0,27.0,30.12,ESE,103,10.0,19.0,12,0.00,,,0.00,,2013-05-11 23:31:00,
2013-05-11 16:42:00,85.0,29.0,30.12,ENE,72,9.0,17.0,13,0.00,,,0.00,,2013-05-11 23:42:00,
2013-05-11 16:52:00,85.0,29.0,30.12,ENE,72,9.0,17.0,13,0.00,,,0.00,,2013-05-11 23:52:00,
2013-05-11 17:01:00,85.0,29.0,30.12,East,95,3.0,17.0,13,0.00,,,0.00,,2013-05-12 00:01:00,
2013-05-11 17:11:00,85.0,29.0,30.12,East,95,3.0,17.0,13,0.00,,,0.00,,2013-05-12 00:11:00,
2013-05-11 17:21:00,86.0,27.0,30.12,ESE,123,4.0,8.0,12,0.00,,,0.00,,2013-05-12 00:21:00,
2013-05-11 17:32:00,85.0,29.0,30.12,ENE,71,5.0,10.0,13,0.00,,,0.00,,2013-05-12 00:32:00,
2013-05-11 17:41:00,86.0,25.0,30.12,NE,55,5.0,9.0,11,0.00,,,0.00,,2013-05-12 00:41:00,
2013-05-11 18:01:00,86.0,27.0,30.11,WNW,285,2.0,6.0,12,0.00,,,0.00,,2013-05-12 01:01:00,
2013-05-11 18:11:00,86.0,27.0,30.11,WNW,285,2.0,6.0,12,0.00,,,0.00,,2013-05-12 01:11:00,
2013-05-11 18:21:00,85.0,35.0,30.11,WNW,286,5.0,11.0,17,0.00,,,0.00,,2013-05-12 01:21:00,
2013-05-11 18:31:00,84.0,34.0,30.11,West,276,2.0,10.0,17,0.00,,,0.00,,2013-05-12 01:31:00,
2013-05-11 18:41:00,83.0,35.0,30.11,WNW,295,3.0,5.0,18,0.00,,,0.00,,2013-05-12 01:41:00,
2013-05-11 18:52:00,83.0,35.0,30.11,WNW,295,3.0,5.0,18,0.00,,,0.00,,2013-05-12 01:52:00,
2013-05-11 19:01:00,82.0,38.0,30.11,West,264,7.0,12.0,21,0.00,,,0.00,,2013-05-12 02:01:00,
2013-05-11 19:11:00,82.0,38.0,30.11,West,264,7.0,12.0,21,0.00,,,0.00,,2013-05-12 02:11:00,
2013-05-11 19:21:00,81.0,40.0,30.11,WNW,286,6.0,15.0,23,0.00,,,0.00,,2013-05-12 02:21:00,
2013-05-11 19:31:00,80.0,40.0,30.11,WNW,285,7.0,9.0,24,0.00,,,0.00,,2013-05-12 02:31:00,
2013-05-11 19:41:00,80.0,42.0,30.11,WNW,295,12.0,15.0,26,0.00,,,0.00,,2013-05-12 02:41:00,
2013-05-11 19:52:00,80.0,42.0,30.11,WNW,295,12.0,15.0,26,0.00,,,0.00,,2013-05-12 02:52:00,
2013-05-11 20:01:00,79.0,41.0,30.12,WNW,288,7.0,13.0,26,0.00,,,0.00,,2013-05-12 03:01:00,
2013-05-11 20:11:00,79.0,41.0,30.13,WNW,288,10.0,15.0,26,0.00,,,0.00,,2013-05-12 03:11:00,
2013-05-11 20:21:00,79.0,41.0,30.13,WNW,288,10.0,15.0,26,0.00,,,0.00,,2013-05-12 03:21:00,
2013-05-11 20:32:00,79.0,40.0,30.13,WNW,287,11.0,16.0,25,0.00,,,0.00,,2013-05-12 03:32:00,
2013-05-11 20:42:00,79.0,40.0,30.13,WNW,287,11.0,16.0,25,0.00,,,0.00,,2013-05-12 03:42:00,
2013-05-11 20:53:00,78.0,42.0,30.13,WNW,287,11.0,15.0,28,0.00,,,0.00,,2013-05-12 03:53:00,
2013-05-11 21:02:00,-999.0,-99.9,30.13,WNW,290,11.0,19.0,30,0.00,,,0.00,,2013-05-12 04:02:00,
2013-05-11 21:12:00,77.0,43.0,30.13,WNW,290,11.0,19.0,30,0.00,,,0.00,,2013-05-12 04:12:00,
2013-05-11 21:22:00,77.0,43.0,30.14,West,277,10.0,16.0,30,0.00,,,0.00,,2013-05-12 04:22:00,
2013-05-11 21:32:00,77.0,42.0,30.14,NW,308,9.0,11.0,29,0.00,,,0.00,,2013-05-12 04:32:00,
2013-05-11 21:42:00,76.0,46.0,30.15,WNW,293,7.0,16.0,34,0.00,,,0.00,,2013-05-12 04:42:00,
2013-05-11 21:52:00,76.0,46.0,30.15,WNW,293,7.0,16.0,34,0.00,,,0.00,,2013-05-12 04:52:00,
2013-05-11 22:02:00,76.0,42.0,30.15,WNW,302,8.0,13.0,30,0.00,,,0.00,,2013-05-12 05:02:00,
2013-05-11 22:11:00,76.0,42.0,30.15,WNW,302,8.0,13.0,30,0.00,,,0.00,,2013-05-12 05:11:00,
2013-05-11 22:21:00,76.0,46.0,30.15,WNW,289,12.0,16.0,34,0.00,,,0.00,,2013-05-12 05:21:00,
2013-05-11 22:31:00,76.0,44.0,30.18,WNW,291,15.0,18.0,32,0.00,,,0.00,,2013-05-12 05:31:00,
2013-05-11 22:42:00,76.0,44.0,30.18,WNW,291,15.0,18.0,32,0.00,,,0.00,,2013-05-12 05:42:00,
2013-05-11 22:51:00,76.0,45.0,30.18,WNW,287,14.0,18.0,33,0.00,,,0.00,,2013-05-12 05:51:00,
2013-05-11 23:01:00,75.0,47.0,30.18,WNW,296,15.0,19.0,37,0.00,,,0.00,,2013-05-12 06:01:00,
2013-05-11 23:11:00,75.0,48.0,30.19,WNW,299,15.0,20.0,38,0.00,,,0.00,,2013-05-12 06:11:00,
2013-05-11 23:21:00,75.0,48.0,30.19,WNW,299,15.0,20.0,38,0.00,,,0.00,,2013-05-12 06:21:00,
2013-05-11 23:31:00,75.0,48.0,30.19,NW,304,15.0,19.0,38,0.00,,,0.00,,2013-05-12 06:31:00,
2013-05-11 23:41:00,75.0,45.0,30.18,WNW,302,14.0,19.0,35,0.00,,,0.00,,2013-05-12 06:41:00,
2013-05-11 23:52:00,75.0,45.0,30.18,WNW,302,14.0,19.0,35,0.00,,,0.00,,2013-05-12 06:52:00,